sensor_id;sensor_type;location;lat;lon;timestamp;P1;durP1;ratioP1;P2;durP2;ratioP2
13090;SDS011;6611;52.604;13.438;2023-06-26T00:02:02;8.83;;;7.77;;
13090;SDS011;6611;52.604;13.438;2023-06-26T00:07:05;9.23;;;7.83;;
13090;SDS011;6611;52.604;13.438;2023-06-26T00:12:07;8.17;;;7.30;;
13090;SDS011;6611;52.604;13.438;2023-06-26T00:17:09;9.53;;;7.60;;
13090;SDS011;6611;52.604;13.438;2023-06-26T00:22:12;8.43;;;7.10;;
13090;SDS011;6611;52.604;13.438;2023-06-26T00:27:14;7.63;;;6.63;;
13090;SDS011;6611;52.604;13.438;2023-06-26T00:32:15;8.10;;;7.17;;
13090;SDS011;6611;52.604;13.438;2023-06-26T00:37:18;8.23;;;6.50;;
13090;SDS011;6611;52.604;13.438;2023-06-26T00:42:21;7.97;;;7.17;;
13090;SDS011;6611;52.604;13.438;2023-06-26T00:47:23;9.53;;;6.73;;
13090;SDS011;6611;52.604;13.438;2023-06-26T00:52:27;9.80;;;7.67;;
13090;SDS011;6611;52.604;13.438;2023-06-26T00:57:29;7.63;;;6.73;;
13090;SDS011;6611;52.604;13.438;2023-06-26T01:02:31;8.33;;;7.43;;
13090;SDS011;6611;52.604;13.438;2023-06-26T01:07:35;9.47;;;7.00;;
13090;SDS011;6611;52.604;13.438;2023-06-26T01:12:38;9.80;;;8.00;;
13090;SDS011;6611;52.604;13.438;2023-06-26T01:17:40;7.57;;;6.77;;
13090;SDS011;6611;52.604;13.438;2023-06-26T01:22:47;9.43;;;7.33;;
13090;SDS011;6611;52.604;13.438;2023-06-26T01:27:57;7.97;;;7.10;;
13090;SDS011;6611;52.604;13.438;2023-06-26T01:32:59;8.00;;;6.67;;
13090;SDS011;6611;52.604;13.438;2023-06-26T01:38:12;8.43;;;7.47;;
13090;SDS011;6611;52.604;13.438;2023-06-26T01:43:18;8.70;;;7.50;;
13090;SDS011;6611;52.604;13.438;2023-06-26T01:48:26;8.70;;;7.00;;
13090;SDS011;6611;52.604;13.438;2023-06-26T01:53:32;9.83;;;7.27;;
13090;SDS011;6611;52.604;13.438;2023-06-26T01:58:41;9.17;;;7.37;;
13090;SDS011;6611;52.604;13.438;2023-06-26T02:03:46;9.43;;;7.00;;
13090;SDS011;6611;52.604;13.438;2023-06-26T02:08:48;9.80;;;7.53;;
13090;SDS011;6611;52.604;13.438;2023-06-26T02:13:51;10.17;;;7.27;;
13090;SDS011;6611;52.604;13.438;2023-06-26T02:18:52;8.17;;;7.37;;
13090;SDS011;6611;52.604;13.438;2023-06-26T02:23:54;8.83;;;7.70;;
13090;SDS011;6611;52.604;13.438;2023-06-26T02:28:57;10.83;;;7.83;;
13090;SDS011;6611;52.604;13.438;2023-06-26T02:33:59;8.97;;;8.03;;
13090;SDS011;6611;52.604;13.438;2023-06-26T02:39:00;9.03;;;8.17;;
13090;SDS011;6611;52.604;13.438;2023-06-26T02:44:04;10.17;;;8.60;;
13090;SDS011;6611;52.604;13.438;2023-06-26T02:49:06;10.97;;;8.80;;
13090;SDS011;6611;52.604;13.438;2023-06-26T02:54:07;8.30;;;7.50;;
13090;SDS011;6611;52.604;13.438;2023-06-26T02:59:10;11.53;;;8.20;;
13090;SDS011;6611;52.604;13.438;2023-06-26T03:04:12;10.73;;;8.03;;
13090;SDS011;6611;52.604;13.438;2023-06-26T03:09:15;10.63;;;7.53;;
13090;SDS011;6611;52.604;13.438;2023-06-26T03:14:19;9.27;;;7.80;;
13090;SDS011;6611;52.604;13.438;2023-06-26T03:19:22;10.20;;;8.77;;
13090;SDS011;6611;52.604;13.438;2023-06-26T03:24:23;12.43;;;8.83;;
13090;SDS011;6611;52.604;13.438;2023-06-26T03:29:26;9.30;;;8.33;;
13090;SDS011;6611;52.604;13.438;2023-06-26T03:34:29;11.03;;;8.80;;
13090;SDS011;6611;52.604;13.438;2023-06-26T03:39:31;11.97;;;8.60;;
13090;SDS011;6611;52.604;13.438;2023-06-26T03:44:34;9.07;;;8.17;;
13090;SDS011;6611;52.604;13.438;2023-06-26T03:49:36;11.67;;;9.03;;
13090;SDS011;6611;52.604;13.438;2023-06-26T03:54:37;11.57;;;9.30;;
13090;SDS011;6611;52.604;13.438;2023-06-26T03:59:40;9.97;;;8.97;;
13090;SDS011;6611;52.604;13.438;2023-06-26T04:04:42;11.00;;;9.80;;
13090;SDS011;6611;52.604;13.438;2023-06-26T04:09:43;11.10;;;9.63;;
13090;SDS011;6611;52.604;13.438;2023-06-26T04:14:47;10.30;;;9.30;;
13090;SDS011;6611;52.604;13.438;2023-06-26T04:19:48;11.10;;;9.40;;
13090;SDS011;6611;52.604;13.438;2023-06-26T04:24:50;10.70;;;9.43;;
13090;SDS011;6611;52.604;13.438;2023-06-26T04:29:53;11.23;;;10.10;;
13090;SDS011;6611;52.604;13.438;2023-06-26T04:34:54;13.70;;;11.73;;
13090;SDS011;6611;52.604;13.438;2023-06-26T04:39:56;14.13;;;11.67;;
13090;SDS011;6611;52.604;13.438;2023-06-26T04:44:59;12.53;;;11.13;;
13090;SDS011;6611;52.604;13.438;2023-06-26T04:50:02;14.63;;;12.07;;
13090;SDS011;6611;52.604;13.438;2023-06-26T04:55:04;13.07;;;11.67;;
13090;SDS011;6611;52.604;13.438;2023-06-26T05:00:08;12.43;;;11.13;;
13090;SDS011;6611;52.604;13.438;2023-06-26T05:05:11;14.47;;;12.47;;
13090;SDS011;6611;52.604;13.438;2023-06-26T05:10:12;16.37;;;12.27;;
13090;SDS011;6611;52.604;13.438;2023-06-26T05:15:15;17.83;;;11.97;;
13090;SDS011;6611;52.604;13.438;2023-06-26T05:20:17;13.30;;;11.90;;
13090;SDS011;6611;52.604;13.438;2023-06-26T05:25:19;14.97;;;11.07;;
13090;SDS011;6611;52.604;13.438;2023-06-26T05:30:23;12.53;;;10.47;;
13090;SDS011;6611;52.604;13.438;2023-06-26T05:35:27;11.77;;;10.57;;
13090;SDS011;6611;52.604;13.438;2023-06-26T05:40:30;12.70;;;11.03;;
13090;SDS011;6611;52.604;13.438;2023-06-26T05:45:35;13.13;;;10.93;;
13090;SDS011;6611;52.604;13.438;2023-06-26T05:50:37;10.87;;;8.53;;
13090;SDS011;6611;52.604;13.438;2023-06-26T05:55:42;12.47;;;10.57;;
13090;SDS011;6611;52.604;13.438;2023-06-26T06:00:45;10.17;;;9.17;;
13090;SDS011;6611;52.604;13.438;2023-06-26T06:05:47;9.53;;;8.50;;
13090;SDS011;6611;52.604;13.438;2023-06-26T06:10:48;9.43;;;8.53;;
13090;SDS011;6611;52.604;13.438;2023-06-26T06:15:51;9.40;;;8.30;;
13090;SDS011;6611;52.604;13.438;2023-06-26T06:20:53;9.03;;;7.33;;
13090;SDS011;6611;52.604;13.438;2023-06-26T06:25:55;7.80;;;7.00;;
13090;SDS011;6611;52.604;13.438;2023-06-26T06:30:58;7.93;;;7.00;;
13090;SDS011;6611;52.604;13.438;2023-06-26T06:35:59;7.10;;;5.93;;
13090;SDS011;6611;52.604;13.438;2023-06-26T06:41:01;8.13;;;6.07;;
13090;SDS011;6611;52.604;13.438;2023-06-26T06:46:04;7.03;;;5.70;;
13090;SDS011;6611;52.604;13.438;2023-06-26T06:51:06;7.03;;;6.00;;
13090;SDS011;6611;52.604;13.438;2023-06-26T06:56:07;7.57;;;6.60;;
13090;SDS011;6611;52.604;13.438;2023-06-26T07:01:10;6.03;;;5.43;;
13090;SDS011;6611;52.604;13.438;2023-06-26T07:06:12;6.65;;;5.75;;
13090;SDS011;6611;52.604;13.438;2023-06-26T07:11:13;6.60;;;5.78;;
13090;SDS011;6611;52.604;13.438;2023-06-26T07:16:20;5.90;;;5.13;;
13090;SDS011;6611;52.604;13.438;2023-06-26T07:21:23;5.97;;;5.03;;
13090;SDS011;6611;52.604;13.438;2023-06-26T07:26:25;7.05;;;4.85;;
13090;SDS011;6611;52.604;13.438;2023-06-26T07:31:28;6.38;;;5.57;;
13090;SDS011;6611;52.604;13.438;2023-06-26T07:36:29;5.20;;;4.70;;
13090;SDS011;6611;52.604;13.438;2023-06-26T07:41:31;5.35;;;4.82;;
13090;SDS011;6611;52.604;13.438;2023-06-26T07:46:34;5.38;;;4.60;;
13090;SDS011;6611;52.604;13.438;2023-06-26T07:51:35;5.18;;;4.55;;
13090;SDS011;6611;52.604;13.438;2023-06-26T07:56:51;4.03;;;3.55;;
13090;SDS011;6611;52.604;13.438;2023-06-26T08:01:56;5.90;;;3.92;;
13090;SDS011;6611;52.604;13.438;2023-06-26T08:06:59;5.22;;;3.75;;
13090;SDS011;6611;52.604;13.438;2023-06-26T08:12:01;4.97;;;4.47;;
13090;SDS011;6611;52.604;13.438;2023-06-26T08:17:04;4.85;;;4.03;;
13090;SDS011;6611;52.604;13.438;2023-06-26T08:22:06;4.50;;;4.10;;
13090;SDS011;6611;52.604;13.438;2023-06-26T08:27:07;5.65;;;4.00;;
13090;SDS011;6611;52.604;13.438;2023-06-26T08:32:10;4.25;;;3.88;;
13090;SDS011;6611;52.604;13.438;2023-06-26T08:37:12;4.63;;;3.97;;
13090;SDS011;6611;52.604;13.438;2023-06-26T08:42:13;4.72;;;3.33;;
13090;SDS011;6611;52.604;13.438;2023-06-26T08:47:16;5.05;;;4.30;;
13090;SDS011;6611;52.604;13.438;2023-06-26T08:52:22;5.05;;;3.78;;
13090;SDS011;6611;52.604;13.438;2023-06-26T08:57:25;5.18;;;3.92;;
13090;SDS011;6611;52.604;13.438;2023-06-26T09:02:29;4.28;;;3.92;;
13090;SDS011;6611;52.604;13.438;2023-06-26T09:07:30;4.70;;;4.22;;
13090;SDS011;6611;52.604;13.438;2023-06-26T09:12:32;4.32;;;3.80;;
13090;SDS011;6611;52.604;13.438;2023-06-26T09:17:39;4.95;;;3.65;;
13090;SDS011;6611;52.604;13.438;2023-06-26T09:22:42;4.32;;;3.92;;
13090;SDS011;6611;52.604;13.438;2023-06-26T09:27:48;3.80;;;3.33;;
13090;SDS011;6611;52.604;13.438;2023-06-26T09:32:51;4.05;;;3.65;;
13090;SDS011;6611;52.604;13.438;2023-06-26T09:37:54;5.28;;;3.47;;
13090;SDS011;6611;52.604;13.438;2023-06-26T09:43:01;3.60;;;3.30;;
13090;SDS011;6611;52.604;13.438;2023-06-26T09:48:05;3.28;;;2.97;;
13090;SDS011;6611;52.604;13.438;2023-06-26T09:53:08;3.33;;;3.03;;
13090;SDS011;6611;52.604;13.438;2023-06-26T09:58:11;3.72;;;3.42;;
13090;SDS011;6611;52.604;13.438;2023-06-26T10:03:16;3.40;;;3.05;;
13090;SDS011;6611;52.604;13.438;2023-06-26T10:08:17;3.58;;;3.15;;
13090;SDS011;6611;52.604;13.438;2023-06-26T10:13:21;3.13;;;2.75;;
13090;SDS011;6611;52.604;13.438;2023-06-26T10:18:25;4.28;;;3.00;;
13090;SDS011;6611;52.604;13.438;2023-06-26T10:23:28;4.65;;;3.40;;
13090;SDS011;6611;52.604;13.438;2023-06-26T10:28:31;4.93;;;3.55;;
13090;SDS011;6611;52.604;13.438;2023-06-26T10:33:36;3.40;;;2.97;;
13090;SDS011;6611;52.604;13.438;2023-06-26T10:44:05;5.25;;;3.47;;
13090;SDS011;6611;52.604;13.438;2023-06-26T10:49:09;3.25;;;2.88;;
13090;SDS011;6611;52.604;13.438;2023-06-26T10:54:14;3.28;;;2.97;;
13090;SDS011;6611;52.604;13.438;2023-06-26T10:59:17;3.35;;;3.05;;
13090;SDS011;6611;52.604;13.438;2023-06-26T11:04:35;3.33;;;3.03;;
13090;SDS011;6611;52.604;13.438;2023-06-26T11:09:38;3.70;;;3.35;;
13090;SDS011;6611;52.604;13.438;2023-06-26T11:14:56;3.05;;;2.75;;
13090;SDS011;6611;52.604;13.438;2023-06-26T11:19:59;3.60;;;3.30;;
13090;SDS011;6611;52.604;13.438;2023-06-26T11:25:01;4.53;;;4.03;;
13090;SDS011;6611;52.604;13.438;2023-06-26T11:30:04;5.03;;;3.45;;
13090;SDS011;6611;52.604;13.438;2023-06-26T11:35:08;3.50;;;3.17;;
13090;SDS011;6611;52.604;13.438;2023-06-26T11:40:16;4.55;;;3.30;;
13090;SDS011;6611;52.604;13.438;2023-06-26T11:45:19;4.82;;;3.78;;
13090;SDS011;6611;52.604;13.438;2023-06-26T11:50:22;6.32;;;3.17;;
13090;SDS011;6611;52.604;13.438;2023-06-26T11:55:24;3.67;;;3.38;;
13090;SDS011;6611;52.604;13.438;2023-06-26T12:00:27;4.55;;;3.45;;
13090;SDS011;6611;52.604;13.438;2023-06-26T12:05:30;4.05;;;3.20;;
13090;SDS011;6611;52.604;13.438;2023-06-26T12:10:32;3.90;;;3.47;;
13090;SDS011;6611;52.604;13.438;2023-06-26T12:15:34;3.88;;;3.53;;
13090;SDS011;6611;52.604;13.438;2023-06-26T12:20:39;4.30;;;3.90;;
13090;SDS011;6611;52.604;13.438;2023-06-26T12:25:41;3.65;;;3.35;;
13090;SDS011;6611;52.604;13.438;2023-06-26T12:30:45;5.00;;;3.55;;
13090;SDS011;6611;52.604;13.438;2023-06-26T12:35:48;4.28;;;3.53;;
13090;SDS011;6611;52.604;13.438;2023-06-26T12:40:51;3.65;;;3.35;;
13090;SDS011;6611;52.604;13.438;2023-06-26T12:45:57;4.70;;;4.00;;
13090;SDS011;6611;52.604;13.438;2023-06-26T12:51:00;4.38;;;3.97;;
13090;SDS011;6611;52.604;13.438;2023-06-26T12:56:10;4.38;;;3.92;;
13090;SDS011;6611;52.604;13.438;2023-06-26T13:01:11;4.10;;;3.70;;
13090;SDS011;6611;52.604;13.438;2023-06-26T13:06:16;4.10;;;3.70;;
13090;SDS011;6611;52.604;13.438;2023-06-26T13:11:18;4.25;;;3.38;;
13090;SDS011;6611;52.604;13.438;2023-06-26T13:16:19;4.60;;;4.10;;
13090;SDS011;6611;52.604;13.438;2023-06-26T13:21:22;4.28;;;3.88;;
13090;SDS011;6611;52.604;13.438;2023-06-26T13:26:24;4.88;;;3.83;;
13090;SDS011;6611;52.604;13.438;2023-06-26T13:31:26;6.50;;;4.65;;
13090;SDS011;6611;52.604;13.438;2023-06-26T13:36:29;5.50;;;4.63;;
13090;SDS011;6611;52.604;13.438;2023-06-26T13:41:34;4.90;;;4.03;;
13090;SDS011;6611;52.604;13.438;2023-06-26T13:46:35;4.43;;;4.00;;
13090;SDS011;6611;52.604;13.438;2023-06-26T13:51:38;4.85;;;4.45;;
13090;SDS011;6611;52.604;13.438;2023-06-26T13:56:45;5.40;;;4.10;;
13090;SDS011;6611;52.604;13.438;2023-06-26T14:01:47;5.57;;;4.38;;
13090;SDS011;6611;52.604;13.438;2023-06-26T14:06:50;5.38;;;4.60;;
13090;SDS011;6611;52.604;13.438;2023-06-26T14:11:52;5.38;;;4.57;;
13090;SDS011;6611;52.604;13.438;2023-06-26T14:16:54;5.68;;;4.63;;
13090;SDS011;6611;52.604;13.438;2023-06-26T14:21:57;5.43;;;4.05;;
13090;SDS011;6611;52.604;13.438;2023-06-26T14:27:01;7.97;;;5.88;;
13090;SDS011;6611;52.604;13.438;2023-06-26T14:32:03;9.55;;;6.30;;
13090;SDS011;6611;52.604;13.438;2023-06-26T14:37:07;8.30;;;5.53;;
13090;SDS011;6611;52.604;13.438;2023-06-26T14:42:09;7.83;;;5.67;;
13090;SDS011;6611;52.604;13.438;2023-06-26T14:47:10;6.67;;;5.90;;
13090;SDS011;6611;52.604;13.438;2023-06-26T14:52:13;9.80;;;6.57;;
13090;SDS011;6611;52.604;13.438;2023-06-26T14:57:15;7.43;;;6.17;;
13090;SDS011;6611;52.604;13.438;2023-06-26T15:02:17;8.83;;;6.90;;
13090;SDS011;6611;52.604;13.438;2023-06-26T15:07:19;8.97;;;7.20;;
13090;SDS011;6611;52.604;13.438;2023-06-26T15:12:21;6.40;;;4.70;;
13090;SDS011;6611;52.604;13.438;2023-06-26T15:17:23;7.73;;;3.43;;
13090;SDS011;6611;52.604;13.438;2023-06-26T15:22:26;3.60;;;2.60;;
13090;SDS011;6611;52.604;13.438;2023-06-26T15:27:28;6.63;;;3.17;;
13090;SDS011;6611;52.604;13.438;2023-06-26T15:32:30;8.03;;;3.40;;
13090;SDS011;6611;52.604;13.438;2023-06-26T15:37:33;5.73;;;4.27;;
13090;SDS011;6611;52.604;13.438;2023-06-26T15:42:44;6.70;;;4.50;;
13090;SDS011;6611;52.604;13.438;2023-06-26T15:47:46;5.40;;;4.17;;
13090;SDS011;6611;52.604;13.438;2023-06-26T15:52:49;6.57;;;5.33;;
13090;SDS011;6611;52.604;13.438;2023-06-26T15:57:50;6.13;;;5.03;;
13090;SDS011;6611;52.604;13.438;2023-06-26T16:02:52;7.47;;;6.00;;
13090;SDS011;6611;52.604;13.438;2023-06-26T16:07:55;7.33;;;6.37;;
13090;SDS011;6611;52.604;13.438;2023-06-26T16:12:57;7.37;;;6.63;;
13090;SDS011;6611;52.604;13.438;2023-06-26T16:17:58;7.60;;;6.80;;
13090;SDS011;6611;52.604;13.438;2023-06-26T16:23:01;8.57;;;7.77;;
13090;SDS011;6611;52.604;13.438;2023-06-26T16:28:03;8.47;;;7.10;;
13090;SDS011;6611;52.604;13.438;2023-06-26T16:33:05;8.50;;;7.60;;
13090;SDS011;6611;52.604;13.438;2023-06-26T16:38:08;10.03;;;6.93;;
13090;SDS011;6611;52.604;13.438;2023-06-26T16:43:10;8.17;;;7.37;;
13090;SDS011;6611;52.604;13.438;2023-06-26T16:48:12;7.67;;;6.97;;
13090;SDS011;6611;52.604;13.438;2023-06-26T16:53:15;8.37;;;7.47;;
13090;SDS011;6611;52.604;13.438;2023-06-26T16:58:17;7.80;;;7.00;;
13090;SDS011;6611;52.604;13.438;2023-06-26T17:03:19;8.80;;;7.87;;
13090;SDS011;6611;52.604;13.438;2023-06-26T17:08:23;9.03;;;8.00;;
13090;SDS011;6611;52.604;13.438;2023-06-26T17:13:25;8.60;;;7.80;;
13090;SDS011;6611;52.604;13.438;2023-06-26T17:18:27;9.10;;;7.53;;
13090;SDS011;6611;52.604;13.438;2023-06-26T17:23:30;8.10;;;7.30;;
13090;SDS011;6611;52.604;13.438;2023-06-26T17:28:31;8.30;;;7.50;;
13090;SDS011;6611;52.604;13.438;2023-06-26T17:33:33;8.30;;;7.40;;
13090;SDS011;6611;52.604;13.438;2023-06-26T17:38:36;8.17;;;6.97;;
13090;SDS011;6611;52.604;13.438;2023-06-26T17:43:39;8.00;;;7.20;;
13090;SDS011;6611;52.604;13.438;2023-06-26T17:48:41;9.23;;;7.73;;
13090;SDS011;6611;52.604;13.438;2023-06-26T17:53:44;8.07;;;7.23;;
13090;SDS011;6611;52.604;13.438;2023-06-26T17:58:50;8.27;;;7.43;;
13090;SDS011;6611;52.604;13.438;2023-06-26T18:03:52;9.53;;;7.37;;
13090;SDS011;6611;52.604;13.438;2023-06-26T18:08:55;7.33;;;6.63;;
13090;SDS011;6611;52.604;13.438;2023-06-26T18:13:57;8.00;;;7.20;;
13090;SDS011;6611;52.604;13.438;2023-06-26T18:18:59;7.37;;;6.67;;
13090;SDS011;6611;52.604;13.438;2023-06-26T18:24:02;9.33;;;6.63;;
13090;SDS011;6611;52.604;13.438;2023-06-26T18:29:04;8.30;;;6.97;;
13090;SDS011;6611;52.604;13.438;2023-06-26T18:34:06;12.33;;;7.53;;
13090;SDS011;6611;52.604;13.438;2023-06-26T18:39:09;7.23;;;5.93;;
13090;SDS011;6611;52.604;13.438;2023-06-26T18:44:11;8.83;;;6.93;;
13090;SDS011;6611;52.604;13.438;2023-06-26T18:49:13;6.77;;;6.00;;
13090;SDS011;6611;52.604;13.438;2023-06-26T18:54:16;7.07;;;6.37;;
13090;SDS011;6611;52.604;13.438;2023-06-26T18:59:18;6.83;;;6.23;;
13090;SDS011;6611;52.604;13.438;2023-06-26T19:04:19;7.83;;;6.90;;
13090;SDS011;6611;52.604;13.438;2023-06-26T19:09:24;7.30;;;6.57;;
13090;SDS011;6611;52.604;13.438;2023-06-26T19:14:27;7.70;;;7.00;;
13090;SDS011;6611;52.604;13.438;2023-06-26T19:19:29;13.10;;;6.83;;
13090;SDS011;6611;52.604;13.438;2023-06-26T19:24:32;7.20;;;5.30;;
13090;SDS011;6611;52.604;13.438;2023-06-26T19:29:34;7.70;;;4.07;;
13090;SDS011;6611;52.604;13.438;2023-06-26T19:34:35;6.47;;;3.80;;
13090;SDS011;6611;52.604;13.438;2023-06-26T19:39:39;5.40;;;4.20;;
13090;SDS011;6611;52.604;13.438;2023-06-26T19:44:40;5.20;;;3.80;;
13090;SDS011;6611;52.604;13.438;2023-06-26T19:49:42;5.40;;;3.87;;
13090;SDS011;6611;52.604;13.438;2023-06-26T19:54:45;4.50;;;3.50;;
13090;SDS011;6611;52.604;13.438;2023-06-26T19:59:47;6.80;;;4.10;;
13090;SDS011;6611;52.604;13.438;2023-06-26T20:04:49;4.43;;;4.03;;
13090;SDS011;6611;52.604;13.438;2023-06-26T20:09:52;4.93;;;3.70;;
13090;SDS011;6611;52.604;13.438;2023-06-26T20:14:53;5.23;;;4.00;;
13090;SDS011;6611;52.604;13.438;2023-06-26T20:19:55;4.83;;;3.03;;
13090;SDS011;6611;52.604;13.438;2023-06-26T20:24:58;4.40;;;3.13;;
13090;SDS011;6611;52.604;13.438;2023-06-26T20:30:00;10.10;;;3.17;;
13090;SDS011;6611;52.604;13.438;2023-06-26T20:35:01;3.63;;;2.43;;
13090;SDS011;6611;52.604;13.438;2023-06-26T20:40:05;4.00;;;2.63;;
13090;SDS011;6611;52.604;13.438;2023-06-26T20:45:08;2.70;;;1.80;;
13090;SDS011;6611;52.604;13.438;2023-06-26T20:50:11;3.23;;;1.83;;
13090;SDS011;6611;52.604;13.438;2023-06-26T20:55:16;2.50;;;1.90;;
13090;SDS011;6611;52.604;13.438;2023-06-26T21:00:18;4.03;;;2.10;;
13090;SDS011;6611;52.604;13.438;2023-06-26T21:05:20;3.90;;;2.00;;
13090;SDS011;6611;52.604;13.438;2023-06-26T21:10:23;6.10;;;2.20;;
13090;SDS011;6611;52.604;13.438;2023-06-26T21:15:25;2.33;;;1.90;;
13090;SDS011;6611;52.604;13.438;2023-06-26T21:20:26;6.10;;;2.00;;
13090;SDS011;6611;52.604;13.438;2023-06-26T21:25:29;3.10;;;1.97;;
13090;SDS011;6611;52.604;13.438;2023-06-26T21:30:31;5.33;;;2.40;;
13090;SDS011;6611;52.604;13.438;2023-06-26T21:35:32;5.37;;;2.80;;
13090;SDS011;6611;52.604;13.438;2023-06-26T21:40:35;5.13;;;2.80;;
13090;SDS011;6611;52.604;13.438;2023-06-26T21:45:37;3.97;;;2.80;;
13090;SDS011;6611;52.604;13.438;2023-06-26T21:50:39;3.13;;;1.90;;
13090;SDS011;6611;52.604;13.438;2023-06-26T21:55:42;6.57;;;2.20;;
13090;SDS011;6611;52.604;13.438;2023-06-26T22:00:44;2.03;;;1.70;;
13090;SDS011;6611;52.604;13.438;2023-06-26T22:05:45;5.97;;;1.97;;
13090;SDS011;6611;52.604;13.438;2023-06-26T22:10:48;3.53;;;2.03;;
13090;SDS011;6611;52.604;13.438;2023-06-26T22:15:50;3.93;;;1.90;;
13090;SDS011;6611;52.604;13.438;2023-06-26T22:20:52;1.80;;;1.40;;
13090;SDS011;6611;52.604;13.438;2023-06-26T22:25:55;2.50;;;1.50;;
13090;SDS011;6611;52.604;13.438;2023-06-26T22:30:57;2.93;;;1.50;;
13090;SDS011;6611;52.604;13.438;2023-06-26T22:35:58;3.67;;;1.80;;
13090;SDS011;6611;52.604;13.438;2023-06-26T22:41:01;1.60;;;1.50;;
13090;SDS011;6611;52.604;13.438;2023-06-26T22:46:03;1.90;;;1.80;;
13090;SDS011;6611;52.604;13.438;2023-06-26T22:51:04;2.47;;;1.80;;
13090;SDS011;6611;52.604;13.438;2023-06-26T22:56:07;3.37;;;1.73;;
13090;SDS011;6611;52.604;13.438;2023-06-26T23:01:09;1.90;;;1.70;;
13090;SDS011;6611;52.604;13.438;2023-06-26T23:06:14;4.10;;;1.90;;
13090;SDS011;6611;52.604;13.438;2023-06-26T23:11:23;3.50;;;1.70;;
13090;SDS011;6611;52.604;13.438;2023-06-26T23:16:24;6.73;;;1.70;;
13090;SDS011;6611;52.604;13.438;2023-06-26T23:21:26;7.47;;;2.03;;
13090;SDS011;6611;52.604;13.438;2023-06-26T23:26:29;4.30;;;1.97;;
13090;SDS011;6611;52.604;13.438;2023-06-26T23:31:31;2.50;;;1.93;;
13090;SDS011;6611;52.604;13.438;2023-06-26T23:36:33;2.87;;;1.70;;
13090;SDS011;6611;52.604;13.438;2023-06-26T23:41:39;7.10;;;1.90;;
13090;SDS011;6611;52.604;13.438;2023-06-26T23:46:40;3.73;;;1.83;;
13090;SDS011;6611;52.604;13.438;2023-06-26T23:51:42;3.70;;;1.93;;
13090;SDS011;6611;52.604;13.438;2023-06-26T23:56:45;1.87;;;1.60;;
